createdAt,value
2023-04-05T00:01:14.501Z,73.18
2023-04-05T00:03:43.290Z,73.04
2023-04-05T00:06:13.495Z,73.49
2023-04-05T00:08:41.917Z,73.44
2023-04-05T00:11:10.732Z,73.55
2023-04-05T00:13:38.779Z,73.77
2023-04-05T00:16:07.270Z,72.89
2023-04-05T00:18:35.535Z,72.28
2023-04-05T00:21:03.872Z,73.99
2023-04-05T00:23:38.593Z,74.30
2023-04-05T00:26:06.991Z,74.50
2023-04-05T00:28:35.464Z,74.44
2023-04-05T00:31:05.657Z,74.59
2023-04-05T00:33:33.763Z,74.74
2023-04-05T00:36:11.444Z,74.92
2023-04-05T00:38:40.771Z,75.04
2023-04-05T00:41:09.719Z,74.89
2023-04-05T00:43:38.217Z,75.16
2023-04-05T00:46:07.145Z,75.40
2023-04-05T00:48:36.246Z,75.12
2023-04-05T00:51:05.005Z,75.14
2023-04-05T00:53:33.023Z,75.61
2023-04-05T00:56:03.243Z,75.63
2023-04-05T00:58:32.055Z,75.54
2023-04-05T01:01:20.637Z,75.54
2023-04-05T01:03:56.037Z,75.68
2023-04-05T01:06:59.928Z,76.19
2023-04-05T01:10:06.556Z,76.11
2023-04-05T01:12:37.337Z,75.98
2023-04-05T01:15:06.100Z,76.40
2023-04-05T01:17:39.425Z,76.86
2023-04-05T01:20:13.292Z,76.93
2023-04-05T01:23:10.142Z,76.36
2023-04-05T01:26:00.260Z,76.63
2023-04-05T01:28:37.743Z,76.68
2023-04-05T01:31:14.849Z,76.47
2023-04-05T01:34:15.953Z,76.29
2023-04-05T01:36:56.313Z,76.03
2023-04-05T01:39:25.714Z,76.54
2023-04-05T01:42:02.658Z,77.12
2023-04-05T01:44:30.702Z,76.69
2023-04-05T01:46:58.714Z,77.05
2023-04-05T01:49:26.868Z,77.18
2023-04-05T01:51:55.056Z,77.27
2023-04-05T01:54:23.723Z,77.03
2023-04-05T01:56:51.689Z,76.92
2023-04-05T01:59:20.237Z,77.62
2023-04-05T02:01:48.351Z,77.49
2023-04-05T02:04:16.749Z,77.60
2023-04-05T02:06:44.793Z,77.78
2023-04-05T02:09:12.827Z,77.38
2023-04-05T02:11:40.971Z,77.43
2023-04-05T02:14:10.712Z,77.74
2023-04-05T02:16:38.798Z,77.32
2023-04-05T02:19:07.060Z,77.40
2023-04-05T02:21:36.838Z,77.35
2023-04-05T02:24:05.510Z,77.68
2023-04-05T02:26:33.844Z,77.84
2023-04-05T02:29:01.968Z,77.87
2023-04-05T02:31:30.464Z,77.85
2023-04-05T02:34:01.543Z,78.06
2023-04-05T02:36:29.616Z,77.96
2023-04-05T02:38:57.779Z,78.32
2023-04-05T02:41:26.098Z,78.55
2023-04-05T02:43:54.491Z,79.30
2023-04-05T02:46:22.464Z,79.09
2023-04-05T02:48:50.549Z,78.99
2023-04-05T02:51:18.907Z,79.37
2023-04-05T02:53:48.339Z,79.29
2023-04-05T02:56:17.073Z,79.01
2023-04-05T02:58:48.787Z,79.07
2023-04-05T03:01:20.354Z,78.62
2023-04-05T03:03:48.373Z,79.42
2023-04-05T03:06:23.492Z,79.67
2023-04-05T03:08:52.391Z,79.88
2023-04-05T03:11:25.047Z,80.15
2023-04-05T03:13:57.208Z,80.10
2023-04-05T03:16:40.209Z,80.71
2023-04-05T03:19:13.771Z,80.69
2023-04-05T03:21:45.492Z,80.98
2023-04-05T03:24:24.418Z,80.87
2023-04-05T03:26:53.914Z,81.16
2023-04-05T03:29:23.434Z,81.18
2023-04-05T03:31:52.554Z,81.34
2023-04-05T03:34:23.144Z,81.27
2023-04-05T03:36:51.440Z,81.36
2023-04-05T03:39:29.586Z,81.54
2023-04-05T03:41:58.071Z,81.16
2023-04-05T03:44:26.002Z,81.21
2023-04-05T03:46:54.565Z,81.75
2023-04-05T03:49:23.624Z,81.69
2023-04-05T03:51:52.098Z,82.37
2023-04-05T03:54:20.225Z,81.87
2023-04-05T03:56:48.250Z,81.74
2023-04-05T03:59:18.886Z,82.22
2023-04-05T04:03:01.933Z,82.71
2023-04-05T04:05:30.072Z,83.57
2023-04-05T04:07:58.226Z,83.30
2023-04-05T04:10:27.675Z,82.95
2023-04-05T04:12:58.645Z,83.05
2023-04-05T04:15:30.452Z,84.11
2023-04-05T04:18:12.156Z,83.61
2023-04-05T04:21:07.937Z,83.17
2023-04-05T04:23:55.812Z,83.96
2023-04-05T04:26:43.936Z,84.21
2023-04-05T04:29:47.975Z,84.16
2023-04-05T04:34:38.289Z,83.74
2023-04-05T04:37:30.290Z,84.41
2023-04-05T04:40:08.968Z,83.68
2023-04-05T04:42:58.807Z,83.27
2023-04-05T04:45:59.601Z,82.91
2023-04-05T04:48:42.436Z,83.59
2023-04-05T04:51:26.291Z,85.48
2023-04-05T04:53:54.589Z,84.74
2023-04-05T04:56:22.587Z,84.64
2023-04-05T04:58:54.994Z,84.37
2023-04-05T05:01:25.055Z,83.85
2023-04-05T05:03:53.735Z,84.02
2023-04-05T05:06:27.351Z,84.56
2023-04-05T05:08:56.457Z,84.84
2023-04-05T05:11:25.286Z,85.80
2023-04-05T05:13:53.595Z,84.69
2023-04-05T05:16:27.610Z,84.85
2023-04-05T05:18:55.798Z,85.95
2023-04-05T05:21:26.933Z,85.51
2023-04-05T05:23:58.745Z,85.83
2023-04-05T05:26:27.845Z,85.51
2023-04-05T05:28:56.596Z,86.00
2023-04-05T05:31:29.355Z,85.72
2023-04-05T05:33:57.378Z,86.47
2023-04-05T05:36:25.939Z,86.68
2023-04-05T05:38:54.595Z,87.14
2023-04-05T05:41:22.871Z,87.62
2023-04-05T05:43:51.233Z,86.88
2023-04-05T05:46:21.338Z,87.02
2023-04-05T05:48:49.422Z,87.08
2023-04-05T05:51:18.235Z,87.45
2023-04-05T05:53:47.198Z,87.98
2023-04-05T05:56:16.023Z,88.53
2023-04-05T05:58:46.478Z,88.33
2023-04-05T06:01:15.061Z,88.19
2023-04-05T06:03:43.244Z,88.23
2023-04-05T06:06:11.541Z,88.68
2023-04-05T06:08:39.629Z,88.35
2023-04-05T06:11:07.639Z,88.53
2023-04-05T06:13:36.478Z,88.94
2023-04-05T06:16:04.761Z,89.22
2023-04-05T06:18:32.744Z,88.94
2023-04-05T06:21:00.843Z,89.07
2023-04-05T06:23:29.364Z,89.79
2023-04-05T06:25:57.442Z,89.69
2023-04-05T06:28:25.413Z,90.19
2023-04-05T06:30:54.300Z,90.16
2023-04-05T06:33:22.327Z,90.43
2023-04-05T06:35:51.372Z,90.55
2023-04-05T06:38:19.787Z,90.61
2023-04-05T06:40:47.840Z,90.93
2023-04-05T06:43:16.000Z,91.32
2023-04-05T06:45:44.102Z,91.35
2023-04-05T06:48:12.836Z,92.01
2023-04-05T06:50:41.300Z,91.79
2023-04-05T06:53:09.540Z,91.85
2023-04-05T06:55:37.492Z,91.67
2023-04-05T06:58:05.522Z,91.97
2023-04-05T07:00:33.595Z,92.02
2023-04-05T07:03:01.933Z,92.20
2023-04-05T07:05:29.864Z,92.48
2023-04-05T07:07:58.944Z,92.28
2023-04-05T07:10:27.034Z,92.80
2023-04-05T07:12:55.400Z,92.74
2023-04-05T07:15:23.514Z,92.56
2023-04-05T07:17:52.386Z,91.99
2023-04-05T07:20:20.822Z,92.13
2023-04-05T07:22:48.902Z,91.84
2023-04-05T07:25:16.970Z,91.93
2023-04-05T07:27:45.062Z,92.00
2023-04-05T07:30:16.326Z,92.30
2023-04-05T07:32:45.093Z,91.92
2023-04-05T07:35:13.207Z,92.14
2023-04-05T07:37:41.378Z,91.84
2023-04-05T07:40:11.079Z,91.73
2023-04-05T07:42:39.713Z,91.70
2023-04-05T07:45:08.737Z,91.93
2023-04-05T07:47:36.840Z,91.94
2023-04-05T07:50:07.156Z,92.49
2023-04-05T07:52:35.288Z,92.00
2023-04-05T07:55:03.567Z,92.63
2023-04-05T07:57:31.575Z,92.14
2023-04-05T07:59:59.618Z,92.65
2023-04-05T08:02:27.992Z,92.41
2023-04-05T08:04:56.217Z,91.47
2023-04-05T08:07:24.423Z,93.16
2023-04-05T08:09:53.759Z,91.66
2023-04-05T08:12:21.863Z,89.44
2023-04-05T08:14:49.894Z,90.73
2023-04-05T08:17:18.095Z,90.90
2023-04-05T08:19:46.110Z,90.08
2023-04-05T08:22:14.139Z,91.52
2023-04-05T08:24:42.211Z,90.57
2023-04-05T08:27:10.460Z,90.38
2023-04-05T08:29:38.840Z,86.84
2023-04-05T08:32:07.232Z,89.24
2023-04-05T08:34:35.556Z,88.64
2023-04-05T08:37:03.656Z,87.11
2023-04-05T08:39:34.203Z,88.40
2023-04-05T08:42:15.969Z,88.47
2023-04-05T08:44:46.560Z,85.99
2023-04-05T08:47:18.935Z,85.25
2023-04-05T08:49:47.377Z,86.00
2023-04-05T08:52:15.886Z,85.58
2023-04-05T08:54:43.944Z,74.69
2023-04-05T08:57:12.247Z,72.51
2023-04-05T08:59:42.376Z,79.04
2023-04-05T09:02:19.875Z,79.41
2023-04-05T09:04:48.952Z,79.21
2023-04-05T09:07:18.158Z,80.63
2023-04-05T09:09:54.020Z,80.35
2023-04-05T09:12:23.099Z,79.83
2023-04-05T09:14:52.096Z,79.32
2023-04-05T09:17:20.075Z,78.83
2023-04-05T09:19:50.548Z,70.81
2023-04-05T09:22:18.673Z,73.59
2023-04-05T09:24:47.520Z,71.40
2023-04-05T09:27:20.506Z,73.82
2023-04-05T09:29:54.717Z,74.24
2023-04-05T09:32:27.783Z,75.54
2023-04-05T09:35:01.188Z,75.55
2023-04-05T09:37:31.532Z,75.99
2023-04-05T09:40:05.163Z,74.57
2023-04-05T09:42:47.869Z,74.72
2023-04-05T09:45:18.415Z,74.22
2023-04-05T09:47:58.825Z,74.45
2023-04-05T09:50:27.245Z,74.90
2023-04-05T09:53:07.650Z,74.30
2023-04-05T09:55:36.177Z,73.62
2023-04-05T09:58:04.345Z,73.43
2023-04-05T10:00:33.060Z,73.51
2023-04-05T10:03:01.323Z,73.31
2023-04-05T10:05:29.929Z,72.62
2023-04-05T10:07:59.146Z,71.37
2023-04-05T10:10:27.463Z,72.07
2023-04-05T10:12:55.862Z,70.06
2023-04-05T10:15:26.505Z,69.32
2023-04-05T10:18:10.768Z,70.64
2023-04-05T10:20:47.541Z,69.54
2023-04-05T10:23:25.733Z,70.82
2023-04-05T10:25:57.247Z,70.80
2023-04-05T10:28:34.807Z,71.11
2023-04-05T10:31:24.049Z,70.98
2023-04-05T10:34:07.337Z,70.60
2023-04-05T10:36:47.631Z,71.05
2023-04-05T10:39:38.834Z,70.97
2023-04-05T10:42:20.682Z,69.28
2023-04-05T10:44:53.830Z,70.35
2023-04-05T10:47:23.942Z,65.09
2023-04-05T10:49:56.519Z,68.69
2023-04-05T10:52:25.897Z,68.04
2023-04-05T10:54:57.686Z,69.20
2023-04-05T10:57:26.565Z,69.44
2023-04-05T10:59:56.172Z,69.47
2023-04-05T11:04:37.209Z,69.44
2023-04-05T11:07:15.690Z,66.41
2023-04-05T11:10:18.036Z,66.19
2023-04-05T11:12:49.705Z,65.93
2023-04-05T11:15:30.089Z,66.36
2023-04-05T11:18:04.815Z,67.51
2023-04-05T11:20:53.349Z,66.68
2023-04-05T11:23:23.430Z,65.15
2023-04-05T11:25:51.981Z,66.65
2023-04-05T11:28:41.109Z,66.84
2023-04-05T11:31:15.418Z,65.42
2023-04-05T11:33:57.337Z,64.05
2023-04-05T11:36:47.977Z,64.46
2023-04-05T11:39:19.240Z,65.38
2023-04-05T11:42:00.601Z,65.50
2023-04-05T11:44:51.590Z,63.18
2023-04-05T11:47:23.496Z,62.90
2023-04-05T11:49:52.877Z,63.59
2023-04-05T11:52:21.913Z,62.93
2023-04-05T11:54:50.276Z,60.95
2023-04-05T11:57:23.780Z,62.65
2023-04-05T11:59:54.019Z,63.03
2023-04-05T12:02:22.415Z,63.93
2023-04-05T12:04:58.182Z,62.80
2023-04-05T12:07:37.064Z,62.34
2023-04-05T12:10:15.960Z,61.48
2023-04-05T12:12:45.140Z,59.60
2023-04-05T12:15:15.154Z,58.23
2023-04-05T12:17:54.763Z,58.93
2023-04-05T12:20:26.287Z,59.79
2023-04-05T12:22:56.859Z,59.06
2023-04-05T12:25:25.269Z,59.71
2023-04-05T12:27:53.873Z,60.64
2023-04-05T12:30:23.952Z,58.96
2023-04-05T12:32:56.280Z,59.13
2023-04-05T12:35:25.116Z,58.97
2023-04-05T12:37:53.885Z,59.17
2023-04-05T12:40:23.453Z,58.36
2023-04-05T12:42:52.224Z,53.24
2023-04-05T12:45:23.824Z,54.14
2023-04-05T12:47:59.976Z,52.63
2023-04-05T12:50:30.704Z,52.48
2023-04-05T12:53:08.933Z,54.58
2023-04-05T12:55:47.884Z,55.15
2023-04-05T12:58:17.596Z,54.41
2023-04-05T13:00:46.809Z,55.27
2023-04-05T13:03:21.794Z,55.59
2023-04-05T13:05:50.010Z,55.65
2023-04-05T13:08:18.813Z,56.23
2023-04-05T13:10:50.316Z,56.39
2023-04-05T13:13:21.076Z,56.82
2023-04-05T13:15:51.444Z,56.71
2023-04-05T13:18:20.716Z,56.39
2023-04-05T13:20:48.847Z,56.18
2023-04-05T13:23:16.874Z,56.78
2023-04-05T13:25:47.784Z,57.03
2023-04-05T13:28:15.850Z,56.17
2023-04-05T13:30:43.873Z,56.25
2023-04-05T13:33:12.289Z,55.97
2023-04-05T13:35:41.078Z,55.81
2023-04-05T13:38:09.337Z,53.84
2023-04-05T13:40:37.767Z,54.14
2023-04-05T13:43:05.837Z,53.83
2023-04-05T13:45:34.407Z,53.93
2023-04-05T13:48:05.834Z,53.77
2023-04-05T13:50:33.894Z,54.05
2023-04-05T13:53:01.954Z,54.40
2023-04-05T13:55:30.276Z,53.60
2023-04-05T13:57:58.392Z,53.47
2023-04-05T14:00:26.724Z,53.93
2023-04-05T14:02:54.863Z,54.42
2023-04-05T14:05:22.856Z,54.57
2023-04-05T14:07:50.993Z,54.30
2023-04-05T14:10:21.667Z,54.65
2023-04-05T14:12:49.915Z,54.88
2023-04-05T14:15:18.112Z,55.14
2023-04-05T14:17:46.253Z,55.06
2023-04-05T14:20:14.360Z,54.15
2023-04-05T14:22:42.495Z,53.68
2023-04-05T14:25:10.682Z,53.50
2023-04-05T14:27:42.404Z,53.61
2023-04-05T14:30:11.485Z,53.78
2023-04-05T14:32:39.911Z,53.49
2023-04-05T14:35:08.623Z,53.61
2023-04-05T14:37:36.655Z,53.41
2023-04-05T14:40:06.094Z,53.34
2023-04-05T14:42:47.576Z,53.12
2023-04-05T14:45:16.618Z,53.48
2023-04-05T14:47:44.829Z,53.53
2023-04-05T14:50:12.953Z,53.81
2023-04-05T14:52:41.277Z,53.79
2023-04-05T14:55:09.832Z,53.95
2023-04-05T14:57:38.057Z,53.86
2023-04-05T15:00:08.265Z,53.47
2023-04-05T15:02:37.909Z,53.85
2023-04-05T15:05:07.041Z,53.67
2023-04-05T15:07:35.158Z,53.96
2023-04-05T15:10:04.111Z,54.26
2023-04-05T15:12:33.163Z,54.15
2023-04-05T15:15:02.298Z,53.94
2023-04-05T15:17:30.748Z,53.60
2023-04-05T15:19:58.948Z,53.29
2023-04-05T15:22:27.265Z,53.46
2023-04-05T15:24:56.059Z,53.36
2023-04-05T15:27:24.129Z,53.26
2023-04-05T15:29:52.975Z,53.71
2023-04-05T15:32:21.386Z,53.55
2023-04-05T15:34:49.481Z,54.11
2023-04-05T15:37:18.096Z,54.32
2023-04-05T15:39:46.173Z,54.28
2023-04-05T15:42:15.678Z,54.16
2023-04-05T15:44:44.066Z,54.02
2023-04-05T15:47:12.415Z,53.92
2023-04-05T15:49:40.597Z,53.98
2023-04-05T15:52:09.967Z,54.00
2023-04-05T15:54:38.126Z,54.08
2023-04-05T15:57:06.285Z,54.30
2023-04-05T15:59:34.440Z,54.31
2023-04-05T16:02:04.495Z,54.59
2023-04-05T16:04:32.587Z,54.77
2023-04-05T16:07:00.773Z,54.48
2023-04-05T16:09:30.081Z,55.05
2023-04-05T16:11:59.427Z,55.09
2023-04-05T16:14:27.992Z,55.22
2023-04-05T16:16:56.217Z,55.36
2023-04-05T16:19:24.541Z,55.12
2023-04-05T16:21:53.654Z,55.15
2023-04-05T16:24:27.395Z,55.41
2023-04-05T16:26:56.659Z,55.59
2023-04-05T16:29:25.108Z,55.82
2023-04-05T16:31:54.546Z,55.67
2023-04-05T16:34:23.015Z,56.10
2023-04-05T16:36:51.374Z,55.92
2023-04-05T16:39:19.463Z,55.80
2023-04-05T16:41:47.544Z,56.23
2023-04-05T16:44:15.556Z,55.98
2023-04-05T16:46:45.549Z,56.32
2023-04-05T16:49:15.893Z,56.49
2023-04-05T16:51:44.040Z,56.87
2023-04-05T16:54:12.092Z,57.28
2023-04-05T16:56:40.149Z,57.56
2023-04-05T16:59:09.798Z,58.05
2023-04-05T17:01:38.986Z,57.82
2023-04-05T17:04:07.556Z,58.23
2023-04-05T17:06:35.567Z,58.31
2023-04-05T17:09:04.290Z,58.77
2023-04-05T17:11:33.878Z,58.42
2023-04-05T17:14:01.791Z,59.12
2023-04-05T17:16:29.820Z,58.42
2023-04-05T17:18:57.962Z,58.87
2023-04-05T17:21:26.445Z,58.64
2023-04-05T17:23:55.038Z,59.25
2023-04-05T17:26:24.096Z,59.02
2023-04-05T17:28:52.441Z,59.73
2023-04-05T17:31:21.042Z,60.03
2023-04-05T17:33:49.040Z,60.31
2023-04-05T17:36:17.866Z,60.06
2023-04-05T17:38:46.298Z,60.52
2023-04-05T17:41:14.339Z,61.08
2023-04-05T17:43:42.389Z,61.15
2023-04-05T17:46:13.966Z,61.44
2023-04-05T17:48:42.491Z,61.32
2023-04-05T17:51:10.879Z,61.21
2023-04-05T17:53:39.042Z,61.49
2023-04-05T17:56:07.474Z,61.33
2023-04-05T17:58:35.976Z,61.46
2023-04-05T18:01:04.435Z,62.13
2023-04-05T18:03:33.121Z,62.18
2023-04-05T18:06:02.183Z,62.42
2023-04-05T18:08:30.540Z,62.05
2023-04-05T18:10:59.604Z,61.99
2023-04-05T18:13:28.448Z,62.00
2023-04-05T18:15:58.715Z,62.48
2023-04-05T18:18:27.672Z,63.79
2023-04-05T18:20:59.595Z,64.08
2023-04-05T18:23:28.518Z,63.59
2023-04-05T18:25:58.198Z,63.52
2023-04-05T18:28:26.354Z,63.34
2023-04-05T18:30:54.670Z,63.47
2023-04-05T18:33:22.922Z,64.03
2023-04-05T18:35:52.478Z,64.27
2023-04-05T18:38:21.975Z,64.65
2023-04-05T18:40:50.808Z,65.02
2023-04-05T18:43:19.322Z,64.83
2023-04-05T18:45:47.446Z,64.97
2023-04-05T18:48:15.669Z,65.03
2023-04-05T18:50:44.130Z,65.05
2023-04-05T18:53:12.344Z,65.24
2023-04-05T18:55:40.882Z,65.39
2023-04-05T18:58:09.653Z,65.61
2023-04-05T19:04:55.638Z,65.58
2023-04-05T19:07:22.649Z,65.44
2023-04-05T19:09:49.366Z,65.41
2023-04-05T19:12:16.030Z,65.51
2023-04-05T19:14:42.666Z,65.44
2023-04-05T19:17:09.724Z,65.36
2023-04-05T19:19:36.693Z,65.53
2023-04-05T19:22:03.567Z,65.46
2023-04-05T19:24:31.331Z,65.63
2023-04-05T19:26:57.989Z,65.91
2023-04-05T19:29:25.351Z,65.96
2023-04-05T19:31:55.278Z,65.96
2023-04-05T19:34:21.907Z,66.06
2023-04-05T19:36:48.713Z,66.06
2023-04-05T19:39:15.424Z,65.88
2023-04-05T19:41:42.913Z,65.99
2023-04-05T19:44:11.588Z,65.88
2023-04-05T19:46:40.415Z,65.99
2023-04-05T19:49:12.196Z,65.99
2023-04-05T19:51:40.909Z,65.93
2023-04-05T19:54:11.255Z,66.16
2023-04-05T19:56:38.569Z,66.20
2023-04-05T19:59:17.603Z,66.27
2023-04-05T20:01:46.624Z,66.57
2023-04-05T20:04:19.520Z,66.41
2023-04-05T20:06:52.348Z,66.41
2023-04-05T20:09:24.202Z,66.32
2023-04-05T20:11:58.139Z,66.49
2023-04-05T20:14:29.698Z,66.67
2023-04-05T20:16:57.756Z,66.66
2023-04-05T20:19:30.063Z,66.62
2023-04-05T20:21:59.641Z,66.13
2023-04-05T20:24:27.865Z,66.31
2023-04-05T20:26:56.385Z,66.32
2023-04-05T20:29:28.097Z,66.35
2023-04-05T20:31:55.781Z,66.12
2023-04-05T20:34:32.043Z,65.74
2023-04-05T20:37:01.125Z,65.61
2023-04-05T20:39:28.979Z,65.71
2023-04-05T20:41:56.296Z,65.17
2023-04-05T20:44:23.988Z,65.33
2023-04-05T20:46:52.754Z,64.91
2023-04-05T20:49:21.100Z,64.84
2023-04-05T20:51:56.018Z,64.71
2023-04-05T20:54:23.513Z,64.53
2023-04-05T20:56:51.112Z,64.53
2023-04-05T20:59:17.758Z,64.49
2023-04-05T21:01:46.899Z,64.14
2023-04-05T21:04:14.535Z,63.99
2023-04-05T21:06:41.621Z,63.64
2023-04-05T21:09:08.505Z,63.75
2023-04-05T21:11:35.519Z,63.96
2023-04-05T21:14:02.315Z,64.26
2023-04-05T21:16:29.128Z,64.08
2023-04-05T21:18:55.844Z,64.21
2023-04-05T21:21:22.535Z,63.85
2023-04-05T21:23:49.438Z,63.97
2023-04-05T21:26:16.051Z,64.04
2023-04-05T21:28:42.698Z,64.05
2023-04-05T21:31:10.041Z,63.76
2023-04-05T21:33:36.860Z,63.92
2023-04-05T21:36:03.885Z,63.71
2023-04-05T21:38:30.676Z,64.09
2023-04-05T21:40:57.308Z,64.01
2023-04-05T21:43:24.111Z,63.94
2023-04-05T21:45:52.540Z,63.95
2023-04-05T21:48:19.625Z,63.76
2023-04-05T21:50:46.344Z,63.40
2023-04-05T21:53:14.003Z,62.94
2023-04-05T21:55:40.937Z,62.32
2023-04-05T21:58:08.299Z,62.31
2023-04-05T22:00:35.541Z,61.98
2023-04-05T22:03:02.332Z,61.45
2023-04-05T22:05:37.135Z,61.91
2023-04-05T22:08:05.839Z,61.72
2023-04-05T22:10:33.127Z,61.45
2023-04-05T22:12:59.960Z,61.44
2023-04-05T22:15:26.860Z,61.55
2023-04-05T22:17:54.151Z,62.02
2023-04-05T22:20:20.799Z,62.24
2023-04-05T22:22:47.520Z,62.02
2023-04-05T22:25:14.323Z,62.36
2023-04-05T22:27:41.077Z,62.47
2023-04-05T22:30:08.525Z,62.69
2023-04-05T22:32:35.301Z,62.51
2023-04-05T22:35:03.620Z,62.61
2023-04-05T22:37:34.771Z,62.63
2023-04-05T22:40:02.362Z,62.67
2023-04-05T22:42:29.018Z,62.87
2023-04-05T22:44:55.685Z,62.89
2023-04-05T22:47:22.326Z,62.82
2023-04-05T22:49:49.288Z,62.90
2023-04-05T22:52:16.112Z,62.88
2023-04-05T22:54:42.661Z,63.09
2023-04-05T22:57:11.219Z,63.06
2023-04-05T22:59:38.620Z,63.27
2023-04-05T23:02:05.452Z,63.19
2023-04-05T23:04:32.752Z,63.72
2023-04-05T23:06:59.257Z,63.88
2023-04-05T23:09:26.576Z,63.77
2023-04-05T23:11:53.834Z,64.14
2023-04-05T23:14:20.950Z,64.37
2023-04-05T23:16:47.493Z,64.60
2023-04-05T23:19:13.999Z,65.00
2023-04-05T23:21:41.004Z,64.66
2023-04-05T23:24:07.860Z,64.93
2023-04-05T23:26:34.496Z,64.69
2023-04-05T23:29:01.081Z,64.92
2023-04-05T23:31:27.790Z,65.21
2023-04-05T23:33:55.247Z,65.14
2023-04-05T23:36:22.065Z,64.93
2023-04-05T23:38:48.825Z,64.86
2023-04-05T23:41:15.534Z,64.95
2023-04-05T23:43:43.181Z,65.01
2023-04-05T23:46:10.105Z,65.09
2023-04-05T23:48:36.690Z,64.98
2023-04-05T23:51:03.489Z,65.05
2023-04-05T23:53:30.502Z,65.02
2023-04-05T23:55:57.217Z,65.12
2023-04-05T23:58:23.929Z,65.22
